Detalii statie TOPCOM IMPEX [00001CF6]

Toti senzorii

Date Temperatura solului [C]Precipitatii [mm]Voltaj baterie [mV]Leaf Wetness [Min]HC Air temperature [C]HC Relative humidity [%]Punctul de roua [C]
medieminmaxsumaultimatimpmedieminmaxmediemediemin
2017-12-10 21:00:00 0 6562 -1.09 -1.72 -0.71 81.06 -3.8 -4.7
2017-12-10 22:00:00 0 6572 -1.54 -2.08 -1.18 76.15 -5.1 -5.5
2017-12-10 23:00:00 0 6572 -1.42 -2.03 -1.05 76.27 -4.9 -5.3
2017-12-11 00:00:00 0 6572 -1.63 -2.12 -1.01 74.03 -5.5 -6
2017-12-11 01:00:00 0 6582 -2.52 -3.16 -1.99 78.04 -5.7 -6.1
2017-12-11 02:00:00 0 6572 -1.3 -2.49 -0.8 76.52 -4.8 -5.6
2017-12-11 03:00:00 0 6582 0.14 -0.74 0.99 70.59 -4.6 -5
2017-12-11 04:00:00 0 6582 1.31 0.89 1.66 63.46 -4.8 -5.2
2017-12-11 05:00:00 0 6582 1.35 1.13 1.69 63.23 -4.9 -5.4
2017-12-11 06:00:00 0 6582 1.56 1.29 1.79 61.09 -5.1 -5.6
2017-12-11 07:00:00 0 6582 1.83 1.45 2.16 59.93 -5.1 -5.6
2017-12-11 08:00:00 0 6582 1.74 1.43 2.11 62.16 -4.7 -5.3
2017-12-11 09:00:00 0 6590 1.69 1.46 2.09 61.71 -4.9 -5.8
2017-12-11 10:00:00 0 6600 1.5 1.38 1.61 67.04 -3.9 -4.6
2017-12-11 11:00:00 0 6630 2.35 1.86 2.92 67.43 -3.1 -3.6
2017-12-11 12:00:00 0.2 6698 5.77 3.25 7.17 59.08 -1.7 -2.6
2017-12-11 13:00:00 0 6786 8.88 7.54 10.25 59.13 1.1 0
2017-12-11 14:00:00 0 6718 10.65 10.24 11.41 60.29 3.1 2.7
2017-12-11 15:00:00 0 6708 10.4 8 10.86 61.99 3.2 2.5
2017-12-11 16:00:00 0 6698 7.6 6.16 11.3 67.81 1.7 1
2017-12-11 17:00:00 0 6660 4.55 3.8 5.67 81.69 1.5 1.2
2017-12-11 18:00:00 0 6640 4.34 3.42 6.02 82.47 1.4 1
2017-12-11 19:00:00 0 6620 5.38 4.35 6.72 75.55 1.2 0.7
2017-12-11 20:00:00 0 6620 4.53 4.05 5.04 76.13 0.5 0.2
2017-12-11 21:00:00 0 6610 3.61 2.91 4.1 80.64 0.4 0.1
2017-12-11 22:00:00 0 6610 3.14 2.51 3.7 84.12 0.6 0.3
2017-12-11 23:00:00 0 6620 4.01 2.44 5.08 81.02 0.9 0.6
2017-12-12 00:00:00 0 6620 4.1 3.59 5 79.96 0.8 0.6
2017-12-12 01:00:00 0 6610 3.14 2.64 3.8 86.64 0.9 0.6
2017-12-12 02:00:00 0 6610 2.87 2.68 3.24 88.93 1.1 0.8
2017-12-12 03:00:00 0 6610 2.51 1.93 3.05 90.52 1 0.7
2017-12-12 04:00:00 0 6610 3.44 2.26 4.1 84.86 1 0.5
2017-12-12 05:00:00 0 6610 2.69 2.32 3.12 89.3 0.9 0.5
2017-12-12 06:00:00 0 6600 1.58 1.23 2.44 95.58 0.8 0.4
2017-12-12 07:00:00 0 6600 1.38 1.1 1.58 98.13 1 0.6
2017-12-12 08:00:00 0 6600 1.02 0.57 1.47 97.23 0.5 0.2
2017-12-12 09:00:00 0 6620 1.09 0.78 1.62 98.71 0.7 0.6
2017-12-12 10:00:00 0 6708 3.3 1.74 5.06 90.55 1.7 1.3
2017-12-12 11:00:00 0 6728 6.24 5.11 7.15 75.24 2 1.4
2017-12-12 12:00:00 0 6718 7.15 6.53 7.97 75.87 3 2.5
2017-12-12 13:00:00 0 6708 7.94 7.16 9.85 75.49 3.6 3.5
2017-12-12 14:00:00 0 6698 10.04 9.38 10.58 64.2 3.4 3.2
2017-12-12 15:00:00 0 6668 11.19 10.59 11.75 59.37 3.3 3.2